OEJN/JED METAR and TAF weather

Enter ICAO airport designator
Station Type Date Time Source
OEJN METAR 2022/01/27 23:00 UTC NOAA

OEJN 272300Z 34006KT 9999 FEW040 18/08 Q1018 NOSIG


Station Type Date Time Source
OEJN Decoded METAR 2022/01/27 23:00 UTC NOAA

Jeddah King Abdul Aziz International Airport , Saudi Arabia (OEJN) 21-42N 039-11E 17M
Jan 27, 2022 - 06:00 PM EST / 2022.01.27 2300 UTC
Wind: from the NNW (340 degrees) at 7 MPH (6 KT):0
Visibility: greater than 7 mile(s):0
Sky conditions: mostly clear
Temperature: 64 F (18 C)
Dew Point: 46 F (8 C)
Relative Humidity: 51%
Pressure (altimeter): 30.06 in. Hg (1018 hPa)
ob: OEJN 272300Z 34006KT 9999 FEW040 18/08 Q1018 NOSIG
cycle: 23

Station Type Date Time Source
OEJN TAF 2022/01/27 18:33 UTC NOAA

TAF OEJN 271700Z 2718/2824 36010KT 9999 FEW030
BECMG 2808/2810 34015KT

Example: see airport list